sensor_id;sensor_type;location;lat;lon;timestamp;pressure;altitude;pressure_sealevel;temperature;humidity
46778;BME280;32536;47.128;8.746;2022-08-19T00:01:55;91419.97;;;19.99;56.47
46778;BME280;32536;47.128;8.746;2022-08-19T00:04:26;91415.81;;;20.04;56.19
46778;BME280;32536;47.128;8.746;2022-08-19T00:06:57;91412.44;;;20.09;56.22
46778;BME280;32536;47.128;8.746;2022-08-19T00:09:25;91422.84;;;20.11;56.28
46778;BME280;32536;47.128;8.746;2022-08-19T00:11:54;91419.66;;;20.12;56.42
46778;BME280;32536;47.128;8.746;2022-08-19T00:14:22;91421.91;;;20.14;56.47
46778;BME280;32536;47.128;8.746;2022-08-19T00:16:50;91421.44;;;20.15;56.28
46778;BME280;32536;47.128;8.746;2022-08-19T00:19:20;91435.50;;;20.14;56.41
46778;BME280;32536;47.128;8.746;2022-08-19T00:21:48;91430.81;;;20.14;56.93
46778;BME280;32536;47.128;8.746;2022-08-19T00:24:15;91430.53;;;20.12;56.72
46778;BME280;32536;47.128;8.746;2022-08-19T00:26:43;91416.94;;;20.12;56.73
46778;BME280;32536;47.128;8.746;2022-08-19T00:29:13;91415.72;;;20.13;56.74
46778;BME280;32536;47.128;8.746;2022-08-19T00:31:42;91417.50;;;20.17;56.54
46778;BME280;32536;47.128;8.746;2022-08-19T00:34:10;91404.94;;;20.19;56.46
46778;BME280;32536;47.128;8.746;2022-08-19T00:36:39;91420.09;;;20.26;56.46
46778;BME280;32536;47.128;8.746;2022-08-19T00:39:07;91411.56;;;20.33;56.31
46778;BME280;32536;47.128;8.746;2022-08-19T00:41:35;91404.22;;;20.39;56.23
46778;BME280;32536;47.128;8.746;2022-08-19T00:44:04;91395.13;;;20.42;56.23
46778;BME280;32536;47.128;8.746;2022-08-19T00:46:40;91398.06;;;20.39;56.04
46778;BME280;32536;47.128;8.746;2022-08-19T00:49:13;91402.47;;;20.36;56.44
46778;BME280;32536;47.128;8.746;2022-08-19T00:51:47;91398.97;;;20.36;56.30
46778;BME280;32536;47.128;8.746;2022-08-19T00:54:16;91403.69;;;20.35;55.96
46778;BME280;32536;47.128;8.746;2022-08-19T00:56:44;91396.00;;;20.34;56.08
46778;BME280;32536;47.128;8.746;2022-08-19T00:59:13;91391.31;;;20.34;56.07
46778;BME280;32536;47.128;8.746;2022-08-19T01:01:43;91391.59;;;20.36;56.35
46778;BME280;32536;47.128;8.746;2022-08-19T01:04:11;91378.53;;;20.40;56.11
46778;BME280;32536;47.128;8.746;2022-08-19T01:06:39;91381.06;;;20.44;56.05
46778;BME280;32536;47.128;8.746;2022-08-19T01:09:07;91395.19;;;20.48;56.04
46778;BME280;32536;47.128;8.746;2022-08-19T01:11:38;91397.72;;;20.52;56.05
46778;BME280;32536;47.128;8.746;2022-08-19T01:14:08;91406.72;;;20.58;55.89
46778;BME280;32536;47.128;8.746;2022-08-19T01:16:37;91418.84;;;20.57;55.74
46778;BME280;32536;47.128;8.746;2022-08-19T01:19:14;91405.81;;;20.46;56.14
46778;BME280;32536;47.128;8.746;2022-08-19T01:22:02;91400.19;;;20.35;56.31
46778;BME280;32536;47.128;8.746;2022-08-19T01:25:13;91400.72;;;20.18;56.97
46778;BME280;32536;47.128;8.746;2022-08-19T01:27:44;91400.81;;;20.09;56.84
46778;BME280;32536;47.128;8.746;2022-08-19T01:30:17;91399.13;;;19.96;56.50
46778;BME280;32536;47.128;8.746;2022-08-19T01:32:49;91405.97;;;19.92;55.93
46778;BME280;32536;47.128;8.746;2022-08-19T01:35:17;91410.38;;;19.89;55.87
46778;BME280;32536;47.128;8.746;2022-08-19T01:40:19;91406.50;;;19.81;56.39
46778;BME280;32536;47.128;8.746;2022-08-19T01:42:50;91402.94;;;19.75;57.91
46778;BME280;32536;47.128;8.746;2022-08-19T01:45:18;91397.06;;;19.76;58.60
46778;BME280;32536;47.128;8.746;2022-08-19T01:47:46;91387.66;;;19.77;56.58
46778;BME280;32536;47.128;8.746;2022-08-19T01:50:14;91390.03;;;19.70;56.45
46778;BME280;32536;47.128;8.746;2022-08-19T01:52:44;91384.66;;;19.60;57.33
46778;BME280;32536;47.128;8.746;2022-08-19T01:55:19;91385.06;;;19.53;57.11
46778;BME280;32536;47.128;8.746;2022-08-19T01:57:53;91380.72;;;19.46;58.08
46778;BME280;32536;47.128;8.746;2022-08-19T02:00:24;91377.91;;;19.41;57.30
46778;BME280;32536;47.128;8.746;2022-08-19T02:02:53;91373.13;;;19.35;56.95
46778;BME280;32536;47.128;8.746;2022-08-19T02:05:20;91369.84;;;19.31;56.86
46778;BME280;32536;47.128;8.746;2022-08-19T02:07:48;91362.63;;;19.28;56.88
46778;BME280;32536;47.128;8.746;2022-08-19T02:10:18;91362.63;;;19.28;57.37
46778;BME280;32536;47.128;8.746;2022-08-19T02:12:47;91357.47;;;19.30;57.02
46778;BME280;32536;47.128;8.746;2022-08-19T02:15:19;91369.09;;;19.31;57.99
46778;BME280;32536;47.128;8.746;2022-08-19T02:17:46;91367.03;;;19.26;57.89
46778;BME280;32536;47.128;8.746;2022-08-19T02:20:14;91378.84;;;19.23;57.38
46778;BME280;32536;47.128;8.746;2022-08-19T02:22:41;91380.59;;;19.26;57.18
46778;BME280;32536;47.128;8.746;2022-08-19T02:25:17;91370.22;;;19.24;59.51
46778;BME280;32536;47.128;8.746;2022-08-19T02:27:44;91373.41;;;19.23;57.78
46778;BME280;32536;47.128;8.746;2022-08-19T02:30:14;91367.84;;;19.17;57.96
46778;BME280;32536;47.128;8.746;2022-08-19T02:32:42;91368.34;;;19.15;62.76
46778;BME280;32536;47.128;8.746;2022-08-19T02:35:09;91376.19;;;19.13;57.69
46778;BME280;32536;47.128;8.746;2022-08-19T02:37:37;91377.88;;;19.11;57.39
46778;BME280;32536;47.128;8.746;2022-08-19T02:40:22;91375.31;;;19.07;57.78
46778;BME280;32536;47.128;8.746;2022-08-19T02:42:49;91375.81;;;19.06;57.87
46778;BME280;32536;47.128;8.746;2022-08-19T02:45:17;91368.41;;;19.06;58.03
46778;BME280;32536;47.128;8.746;2022-08-19T02:47:43;91382.72;;;19.07;57.49
46778;BME280;32536;47.128;8.746;2022-08-19T02:50:10;91377.09;;;19.10;57.46
46778;BME280;32536;47.128;8.746;2022-08-19T02:52:38;91364.28;;;19.11;57.70
46778;BME280;32536;47.128;8.746;2022-08-19T02:55:05;91372.72;;;19.13;57.64
46778;BME280;32536;47.128;8.746;2022-08-19T02:57:32;91362.91;;;19.15;57.85
46778;BME280;32536;47.128;8.746;2022-08-19T03:00:00;91365.63;;;19.15;57.83
46778;BME280;32536;47.128;8.746;2022-08-19T03:02:27;91368.34;;;19.15;57.85
46778;BME280;32536;47.128;8.746;2022-08-19T03:04:54;91362.91;;;19.15;57.78
46778;BME280;32536;47.128;8.746;2022-08-19T03:07:20;91370.28;;;19.15;57.88
46778;BME280;32536;47.128;8.746;2022-08-19T03:09:47;91363.34;;;19.14;57.80
46778;BME280;32536;47.128;8.746;2022-08-19T03:12:14;91365.63;;;19.15;57.71
46778;BME280;32536;47.128;8.746;2022-08-19T03:14:41;91374.50;;;19.16;58.06
46778;BME280;32536;47.128;8.746;2022-08-19T03:17:26;91371.03;;;19.15;59.54
46778;BME280;32536;47.128;8.746;2022-08-19T03:19:53;91371.59;;;19.19;57.61
46778;BME280;32536;47.128;8.746;2022-08-19T03:22:20;91368.59;;;19.17;57.64
46778;BME280;32536;47.128;8.746;2022-08-19T03:24:46;91370.88;;;19.19;57.56
46778;BME280;32536;47.128;8.746;2022-08-19T03:27:47;91377.81;;;19.20;57.66
46778;BME280;32536;47.128;8.746;2022-08-19T03:30:14;91379.00;;;19.19;57.90
46778;BME280;32536;47.128;8.746;2022-08-19T03:32:41;91379.75;;;19.19;58.27
46778;BME280;32536;47.128;8.746;2022-08-19T03:35:08;91374.31;;;19.19;58.14
46778;BME280;32536;47.128;8.746;2022-08-19T03:37:35;91378.84;;;19.23;57.96
46778;BME280;32536;47.128;8.746;2022-08-19T03:40:02;91360.56;;;19.23;58.04
46778;BME280;32536;47.128;8.746;2022-08-19T03:42:30;91363.28;;;19.23;58.15
46778;BME280;32536;47.128;8.746;2022-08-19T03:44:56;91367.97;;;19.23;58.15
46778;BME280;32536;47.128;8.746;2022-08-19T03:47:24;91353.38;;;19.20;58.07
46778;BME280;32536;47.128;8.746;2022-08-19T03:49:51;91362.72;;;19.19;58.05
46778;BME280;32536;47.128;8.746;2022-08-19T03:52:18;91355.03;;;19.17;58.18
46778;BME280;32536;47.128;8.746;2022-08-19T03:54:45;91352.78;;;19.16;58.33
46778;BME280;32536;47.128;8.746;2022-08-19T03:57:11;91348.38;;;19.18;58.29
46778;BME280;32536;47.128;8.746;2022-08-19T03:59:39;91348.84;;;19.17;58.41
46778;BME280;32536;47.128;8.746;2022-08-19T04:02:11;91351.75;;;19.13;58.67
46778;BME280;32536;47.128;8.746;2022-08-19T04:04:40;91360.81;;;19.10;58.50
46778;BME280;32536;47.128;8.746;2022-08-19T04:07:09;91364.28;;;19.11;58.35
46778;BME280;32536;47.128;8.746;2022-08-19T04:09:38;91364.28;;;19.11;58.50
46778;BME280;32536;47.128;8.746;2022-08-19T04:12:06;91360.81;;;19.10;58.36
46778;BME280;32536;47.128;8.746;2022-08-19T04:14:34;91372.25;;;19.14;58.33
46778;BME280;32536;47.128;8.746;2022-08-19T04:17:02;91368.16;;;19.19;58.37
46778;BME280;32536;47.128;8.746;2022-08-19T04:19:35;91374.44;;;19.25;58.63
46778;BME280;32536;47.128;8.746;2022-08-19T04:22:03;91365.63;;;19.30;58.39
46778;BME280;32536;47.128;8.746;2022-08-19T04:24:30;91378.47;;;19.30;58.52
46778;BME280;32536;47.128;8.746;2022-08-19T04:26:59;91382.22;;;19.32;58.65
46778;BME280;32536;47.128;8.746;2022-08-19T04:29:27;91376.31;;;19.34;58.46
46778;BME280;32536;47.128;8.746;2022-08-19T04:31:56;91378.09;;;19.37;58.37
46778;BME280;32536;47.128;8.746;2022-08-19T04:34:27;91375.09;;;19.35;58.72
46778;BME280;32536;47.128;8.746;2022-08-19T04:36:56;91373.78;;;19.30;58.16
46778;BME280;32536;47.128;8.746;2022-08-19T04:39:28;91384.72;;;19.21;58.36
46778;BME280;32536;47.128;8.746;2022-08-19T04:42:16;91383.13;;;19.14;58.17
46778;BME280;32536;47.128;8.746;2022-08-19T04:45:04;91381.66;;;19.04;57.97
46778;BME280;32536;47.128;8.746;2022-08-19T04:47:32;91395.34;;;18.95;57.72
46778;BME280;32536;47.128;8.746;2022-08-19T04:49:58;91394.31;;;18.83;58.11
46778;BME280;32536;47.128;8.746;2022-08-19T04:52:25;91393.81;;;18.69;58.22
46778;BME280;32536;47.128;8.746;2022-08-19T04:54:52;91401.81;;;18.64;58.36
46778;BME280;32536;47.128;8.746;2022-08-19T04:57:21;91403.03;;;18.63;58.38
46778;BME280;32536;47.128;8.746;2022-08-19T04:59:48;91405.13;;;18.68;58.04
46778;BME280;32536;47.128;8.746;2022-08-19T05:02:15;91409.59;;;18.71;58.30
46778;BME280;32536;47.128;8.746;2022-08-19T05:04:41;91415.03;;;18.71;58.17
46778;BME280;32536;47.128;8.746;2022-08-19T05:07:08;91414.28;;;18.70;58.19
46778;BME280;32536;47.128;8.746;2022-08-19T05:09:36;91408.88;;;18.70;58.40
46778;BME280;32536;47.128;8.746;2022-08-19T05:12:03;91413.13;;;18.62;58.83
46778;BME280;32536;47.128;8.746;2022-08-19T05:14:31;91417.53;;;18.60;58.47
46778;BME280;32536;47.128;8.746;2022-08-19T05:16:58;91413.31;;;18.59;58.63
46778;BME280;32536;47.128;8.746;2022-08-19T05:19:26;91418.72;;;18.59;58.64
46778;BME280;32536;47.128;8.746;2022-08-19T05:22:11;91421.72;;;18.61;58.65
46778;BME280;32536;47.128;8.746;2022-08-19T05:25:27;91420.41;;;18.56;60.94
46778;BME280;32536;47.128;8.746;2022-08-19T05:27:54;91424.91;;;18.59;58.93
46778;BME280;32536;47.128;8.746;2022-08-19T05:30:21;91425.09;;;18.55;58.96
46778;BME280;32536;47.128;8.746;2022-08-19T05:32:47;91421.50;;;18.49;59.44
46778;BME280;32536;47.128;8.746;2022-08-19T05:35:14;91427.84;;;18.46;59.73
46778;BME280;32536;47.128;8.746;2022-08-19T05:37:41;91433.13;;;18.40;59.80
46778;BME280;32536;47.128;8.746;2022-08-19T05:40:08;91419.44;;;18.35;60.19
46778;BME280;32536;47.128;8.746;2022-08-19T05:42:36;91435.13;;;18.31;60.24
46778;BME280;32536;47.128;8.746;2022-08-19T05:45:03;91440.53;;;18.31;60.08
46778;BME280;32536;47.128;8.746;2022-08-19T05:47:30;91438.88;;;18.33;60.28
46778;BME280;32536;47.128;8.746;2022-08-19T05:49:58;91436.00;;;18.37;60.09
46778;BME280;32536;47.128;8.746;2022-08-19T05:52:27;91444.59;;;18.35;60.13
46778;BME280;32536;47.128;8.746;2022-08-19T05:54:54;91447.91;;;18.39;59.90
46778;BME280;32536;47.128;8.746;2022-08-19T05:57:21;91445.91;;;18.49;59.77
46778;BME280;32536;47.128;8.746;2022-08-19T05:59:49;91432.19;;;18.53;59.94
46778;BME280;32536;47.128;8.746;2022-08-19T06:02:16;91429.00;;;18.54;59.75
46778;BME280;32536;47.128;8.746;2022-08-19T06:04:43;91439.38;;;18.56;59.87
46778;BME280;32536;47.128;8.746;2022-08-19T06:07:10;91447.34;;;18.60;59.71
46778;BME280;32536;47.128;8.746;2022-08-19T06:09:37;91436.50;;;18.60;59.86
46778;BME280;32536;47.128;8.746;2022-08-19T06:12:04;91435.47;;;18.57;59.92
46778;BME280;32536;47.128;8.746;2022-08-19T06:14:34;91426.75;;;18.53;61.13
46778;BME280;32536;47.128;8.746;2022-08-19T06:17:02;91417.72;;;18.47;60.46
46778;BME280;32536;47.128;8.746;2022-08-19T06:19:30;91416.13;;;18.40;61.13
46778;BME280;32536;47.128;8.746;2022-08-19T06:21:58;91422.44;;;18.37;60.79
46778;BME280;32536;47.128;8.746;2022-08-19T06:24:28;91419.72;;;18.37;61.01
46778;BME280;32536;47.128;8.746;2022-08-19T06:26:56;91420.03;;;18.39;60.79
46778;BME280;32536;47.128;8.746;2022-08-19T06:29:25;91422.44;;;18.37;60.97
46778;BME280;32536;47.128;8.746;2022-08-19T06:31:54;91425.31;;;18.33;61.01
46778;BME280;32536;47.128;8.746;2022-08-19T06:34:25;91434.84;;;18.29;61.38
46778;BME280;32536;47.128;8.746;2022-08-19T06:36:54;91432.88;;;18.29;60.85
46778;BME280;32536;47.128;8.746;2022-08-19T06:39:27;91438.00;;;18.27;62.68
46778;BME280;32536;47.128;8.746;2022-08-19T06:41:58;91440.59;;;18.21;61.83
46778;BME280;32536;47.128;8.746;2022-08-19T06:44:28;91447.38;;;18.17;61.79
46778;BME280;32536;47.128;8.746;2022-08-19T06:47:05;91452.34;;;18.18;62.30
46778;BME280;32536;47.128;8.746;2022-08-19T06:49:34;91443.00;;;18.19;61.04
46778;BME280;32536;47.128;8.746;2022-08-19T06:52:03;91440.47;;;18.16;61.66
46778;BME280;32536;47.128;8.746;2022-08-19T06:54:31;91449.69;;;18.09;61.70
46778;BME280;32536;47.128;8.746;2022-08-19T06:56:59;91440.94;;;18.05;61.94
46778;BME280;32536;47.128;8.746;2022-08-19T06:59:29;91428.47;;;17.98;66.69
46778;BME280;32536;47.128;8.746;2022-08-19T07:01:58;91434.78;;;17.95;62.29
46778;BME280;32536;47.128;8.746;2022-08-19T07:04:29;91436.75;;;17.85;63.74
46778;BME280;32536;47.128;8.746;2022-08-19T07:07:11;91452.41;;;17.81;65.10
46778;BME280;32536;47.128;8.746;2022-08-19T07:09:42;91458.44;;;17.76;63.45
46778;BME280;32536;47.128;8.746;2022-08-19T07:12:11;91466.72;;;17.82;62.68
46778;BME280;32536;47.128;8.746;2022-08-19T07:14:40;91464.88;;;17.88;62.65
46778;BME280;32536;47.128;8.746;2022-08-19T07:17:10;91465.50;;;17.92;63.14
46778;BME280;32536;47.128;8.746;2022-08-19T07:19:38;91466.56;;;17.95;62.69
46778;BME280;32536;47.128;8.746;2022-08-19T07:22:07;91477.53;;;18.00;62.43
46778;BME280;32536;47.128;8.746;2022-08-19T07:24:35;91465.16;;;18.08;63.14
46778;BME280;32536;47.128;8.746;2022-08-19T07:27:04;91464.72;;;18.10;62.65
46778;BME280;32536;47.128;8.746;2022-08-19T07:29:33;91459.91;;;18.14;62.68
46778;BME280;32536;47.128;8.746;2022-08-19T07:32:02;91462.16;;;18.16;62.62
46778;BME280;32536;47.128;8.746;2022-08-19T07:34:30;91473.16;;;18.12;62.60
46778;BME280;32536;47.128;8.746;2022-08-19T07:37:04;91468.34;;;18.16;62.47
46778;BME280;32536;47.128;8.746;2022-08-19T07:39:33;91476.88;;;18.24;62.76
46778;BME280;32536;47.128;8.746;2022-08-19T07:42:06;91479.44;;;18.28;62.06
46778;BME280;32536;47.128;8.746;2022-08-19T07:44:34;91481.53;;;18.33;61.88
46778;BME280;32536;47.128;8.746;2022-08-19T07:47:02;91492.22;;;18.27;61.77
46778;BME280;32536;47.128;8.746;2022-08-19T07:49:30;91504.72;;;18.24;61.45
46778;BME280;32536;47.128;8.746;2022-08-19T07:52:07;91506.72;;;18.15;62.19
46778;BME280;32536;47.128;8.746;2022-08-19T07:54:37;91513.06;;;18.12;62.05
46778;BME280;32536;47.128;8.746;2022-08-19T07:57:06;91517.59;;;18.05;61.62
46778;BME280;32536;47.128;8.746;2022-08-19T07:59:33;91505.84;;;18.08;61.74
46778;BME280;32536;47.128;8.746;2022-08-19T08:02:02;91512.59;;;18.13;61.81
46778;BME280;32536;47.128;8.746;2022-08-19T08:04:29;91519.22;;;18.21;61.96
46778;BME280;32536;47.128;8.746;2022-08-19T08:07:15;91522.19;;;18.33;62.41
46778;BME280;32536;47.128;8.746;2022-08-19T08:10:01;91525.06;;;18.38;62.69
46778;BME280;32536;47.128;8.746;2022-08-19T08:12:35;91534.25;;;18.32;63.15
46778;BME280;32536;47.128;8.746;2022-08-19T08:15:10;91538.19;;;18.21;63.79
46778;BME280;32536;47.128;8.746;2022-08-19T08:17:42;91537.31;;;18.15;64.17
46778;BME280;32536;47.128;8.746;2022-08-19T08:20:11;91537.91;;;18.10;64.60
46778;BME280;32536;47.128;8.746;2022-08-19T08:22:43;91548.75;;;18.01;65.61
46778;BME280;32536;47.128;8.746;2022-08-19T08:25:39;91545.13;;;18.04;65.43
46778;BME280;32536;47.128;8.746;2022-08-19T08:28:06;91542.56;;;18.10;64.88
46778;BME280;32536;47.128;8.746;2022-08-19T08:30:34;91541.69;;;18.13;65.13
46778;BME280;32536;47.128;8.746;2022-08-19T08:33:02;91535.81;;;18.14;65.16
46778;BME280;32536;47.128;8.746;2022-08-19T08:35:29;91544.41;;;18.03;65.43
46778;BME280;32536;47.128;8.746;2022-08-19T08:37:56;91546.81;;;18.01;65.59
46778;BME280;32536;47.128;8.746;2022-08-19T08:43:28;91557.63;;;17.92;65.82
46778;BME280;32536;47.128;8.746;2022-08-19T08:46:11;91566.66;;;17.89;66.26
46778;BME280;32536;47.128;8.746;2022-08-19T08:48:51;91573.28;;;17.88;66.34
46778;BME280;32536;47.128;8.746;2022-08-19T08:51:28;91582.59;;;17.87;66.12
46778;BME280;32536;47.128;8.746;2022-08-19T08:53:59;91582.47;;;17.90;65.96
46778;BME280;32536;47.128;8.746;2022-08-19T08:56:27;91588.66;;;17.91;66.02
46778;BME280;32536;47.128;8.746;2022-08-19T08:59:20;91581.56;;;17.93;66.33
46778;BME280;32536;47.128;8.746;2022-08-19T09:01:52;91583.69;;;17.99;66.03
46778;BME280;32536;47.128;8.746;2022-08-19T09:04:19;91598.75;;;18.00;66.07
46778;BME280;32536;47.128;8.746;2022-08-19T09:09:40;91601.00;;;17.92;66.16
46778;BME280;32536;47.128;8.746;2022-08-19T09:12:19;91601.63;;;17.96;66.33
46778;BME280;32536;47.128;8.746;2022-08-19T09:15:10;91597.56;;;18.01;66.28
46778;BME280;32536;47.128;8.746;2022-08-19T09:17:39;91600.84;;;18.05;66.29
46778;BME280;32536;47.128;8.746;2022-08-19T09:22:37;91606.88;;;18.18;66.54
46778;BME280;32536;47.128;8.746;2022-08-19T09:25:07;91605.22;;;18.21;66.24
46778;BME280;32536;47.128;8.746;2022-08-19T09:28:08;91606.09;;;18.27;66.59
46778;BME280;32536;47.128;8.746;2022-08-19T09:30:40;91616.22;;;18.27;66.10
46778;BME280;32536;47.128;8.746;2022-08-19T09:33:07;91614.69;;;18.26;66.22
46778;BME280;32536;47.128;8.746;2022-08-19T09:35:34;91612.28;;;18.18;66.46
46778;BME280;32536;47.128;8.746;2022-08-19T09:38:01;91619.38;;;18.16;66.59
46778;BME280;32536;47.128;8.746;2022-08-19T09:40:28;91617.44;;;18.16;66.86
46778;BME280;32536;47.128;8.746;2022-08-19T09:42:56;91621.63;;;18.17;66.83
46778;BME280;32536;47.128;8.746;2022-08-19T09:45:28;91624.06;;;18.15;66.68
46778;BME280;32536;47.128;8.746;2022-08-19T09:47:56;91613.22;;;18.15;67.11
46778;BME280;32536;47.128;8.746;2022-08-19T09:50:23;91618.47;;;18.19;67.03
46778;BME280;32536;47.128;8.746;2022-08-19T09:52:50;91627.66;;;18.21;67.02
46778;BME280;32536;47.128;8.746;2022-08-19T09:55:18;91641.81;;;18.26;67.26
46778;BME280;32536;47.128;8.746;2022-08-19T09:57:45;91638.50;;;18.31;66.91
46778;BME280;32536;47.128;8.746;2022-08-19T10:00:12;91635.63;;;18.34;66.97
46778;BME280;32536;47.128;8.746;2022-08-19T10:02:39;91639.38;;;18.37;66.94
46778;BME280;32536;47.128;8.746;2022-08-19T10:05:06;91641.78;;;18.44;67.00
46778;BME280;32536;47.128;8.746;2022-08-19T10:07:51;91644.97;;;18.52;66.85
46778;BME280;32536;47.128;8.746;2022-08-19T10:10:18;91648.25;;;18.56;66.75
46778;BME280;32536;47.128;8.746;2022-08-19T10:12:45;91635.75;;;18.59;66.50
46778;BME280;32536;47.128;8.746;2022-08-19T10:15:13;91639.66;;;18.58;66.49
46778;BME280;32536;47.128;8.746;2022-08-19T10:17:40;91647.81;;;18.58;66.49
46778;BME280;32536;47.128;8.746;2022-08-19T10:20:07;91644.19;;;18.61;66.57
46778;BME280;32536;47.128;8.746;2022-08-19T10:22:35;91644.19;;;18.61;66.63
46778;BME280;32536;47.128;8.746;2022-08-19T10:25:04;91641.78;;;18.53;66.96
46778;BME280;32536;47.128;8.746;2022-08-19T10:27:31;91643.88;;;18.59;67.04
46778;BME280;32536;47.128;8.746;2022-08-19T10:29:58;91649.63;;;18.61;66.80
46778;BME280;32536;47.128;8.746;2022-08-19T10:32:25;91647.06;;;18.66;66.77
46778;BME280;32536;47.128;8.746;2022-08-19T10:34:52;91634.53;;;18.69;66.59
46778;BME280;32536;47.128;8.746;2022-08-19T10:37:19;91640.69;;;18.69;66.52
46778;BME280;32536;47.128;8.746;2022-08-19T10:39:46;91639.66;;;18.76;66.40
46778;BME280;32536;47.128;8.746;2022-08-19T10:42:16;91643.41;;;18.79;66.17
46778;BME280;32536;47.128;8.746;2022-08-19T10:44:44;91636.31;;;18.81;66.20
46778;BME280;32536;47.128;8.746;2022-08-19T10:47:12;91642.78;;;18.84;66.10
46778;BME280;32536;47.128;8.746;2022-08-19T10:49:39;91644.72;;;18.83;65.95
46778;BME280;32536;47.128;8.746;2022-08-19T10:52:26;91648.94;;;18.84;66.01
46778;BME280;32536;47.128;8.746;2022-08-19T10:55:04;91655.78;;;18.80;65.52
46778;BME280;32536;47.128;8.746;2022-08-19T10:57:51;91649.09;;;18.81;65.74
46778;BME280;32536;47.128;8.746;2022-08-19T11:00:21;91651.66;;;18.84;65.91
46778;BME280;32536;47.128;8.746;2022-08-19T11:02:49;91649.44;;;18.92;65.82
46778;BME280;32536;47.128;8.746;2022-08-19T11:05:18;91653.31;;;19.00;65.64
46778;BME280;32536;47.128;8.746;2022-08-19T11:07:45;91654.66;;;19.05;65.58
46778;BME280;32536;47.128;8.746;2022-08-19T11:10:13;91655.25;;;19.09;65.49
46778;BME280;32536;47.128;8.746;2022-08-19T11:12:41;91653.28;;;19.10;65.54
46778;BME280;32536;47.128;8.746;2022-08-19T11:15:09;91650.72;;;19.15;65.53
46778;BME280;32536;47.128;8.746;2022-08-19T11:17:38;91652.22;;;19.16;65.29
46778;BME280;32536;47.128;8.746;2022-08-19T11:20:11;91661.41;;;19.19;65.41
46778;BME280;32536;47.128;8.746;2022-08-19T11:22:40;91662.72;;;19.24;65.74
46778;BME280;32536;47.128;8.746;2022-08-19T11:25:09;91662.13;;;19.29;65.71
46778;BME280;32536;47.128;8.746;2022-08-19T11:27:40;91663.16;;;19.31;65.37
46778;BME280;32536;47.128;8.746;2022-08-19T11:30:10;91665.72;;;19.35;65.20
46778;BME280;32536;47.128;8.746;2022-08-19T11:32:38;91675.06;;;19.34;65.22
46778;BME280;32536;47.128;8.746;2022-08-19T11:35:05;91673.09;;;19.34;65.33
46778;BME280;32536;47.128;8.746;2022-08-19T11:37:32;91667.06;;;19.40;65.30
46778;BME280;32536;47.128;8.746;2022-08-19T11:40:04;91674.13;;;19.46;65.09
46778;BME280;32536;47.128;8.746;2022-08-19T11:42:31;91669.25;;;19.50;65.03
46778;BME280;32536;47.128;8.746;2022-08-19T11:45:17;91680.28;;;19.47;64.79
46778;BME280;32536;47.128;8.746;2022-08-19T11:47:43;91674.13;;;19.46;64.90
46778;BME280;32536;47.128;8.746;2022-08-19T11:50:11;91691.63;;;19.45;64.82
46778;BME280;32536;47.128;8.746;2022-08-19T11:52:38;91691.63;;;19.45;65.05
46778;BME280;32536;47.128;8.746;2022-08-19T11:55:06;91690.72;;;19.48;64.96
46778;BME280;32536;47.128;8.746;2022-08-19T11:57:33;91699.59;;;19.49;64.60
46778;BME280;32536;47.128;8.746;2022-08-19T12:00:00;91694.47;;;19.51;64.76
46778;BME280;32536;47.128;8.746;2022-08-19T12:02:28;91683.75;;;19.57;64.62
46778;BME280;32536;47.128;8.746;2022-08-19T12:04:55;91683.09;;;19.62;64.73
46778;BME280;32536;47.128;8.746;2022-08-19T12:07:22;91691.09;;;19.65;64.43
46778;BME280;32536;47.128;8.746;2022-08-19T12:09:50;91696.53;;;19.65;64.56
46778;BME280;32536;47.128;8.746;2022-08-19T12:12:17;91699.25;;;19.65;64.71
46778;BME280;32536;47.128;8.746;2022-08-19T12:14:43;91692.13;;;19.68;64.74
46778;BME280;32536;47.128;8.746;2022-08-19T12:17:12;91696.94;;;19.73;64.64
46778;BME280;32536;47.128;8.746;2022-08-19T12:19:39;91697.50;;;19.77;64.39
46778;BME280;32536;47.128;8.746;2022-08-19T12:22:05;91701.28;;;19.80;64.44
46778;BME280;32536;47.128;8.746;2022-08-19T12:24:33;91710.94;;;19.81;64.28
46778;BME280;32536;47.128;8.746;2022-08-19T12:27:00;91711.41;;;19.79;64.21
46778;BME280;32536;47.128;8.746;2022-08-19T12:29:28;91704.63;;;19.75;64.21
46778;BME280;32536;47.128;8.746;2022-08-19T12:31:56;91704.22;;;19.67;64.08
46778;BME280;32536;47.128;8.746;2022-08-19T12:34:29;91705.59;;;19.62;63.71
46778;BME280;32536;47.128;8.746;2022-08-19T12:36:58;91708.94;;;19.57;63.68
46778;BME280;32536;47.128;8.746;2022-08-19T12:39:27;91710.00;;;19.50;63.76
46778;BME280;32536;47.128;8.746;2022-08-19T12:41:56;91710.81;;;19.42;63.72
46778;BME280;32536;47.128;8.746;2022-08-19T12:44:23;91702.81;;;19.38;64.00
46778;BME280;32536;47.128;8.746;2022-08-19T12:46:50;91702.38;;;19.40;64.17
46778;BME280;32536;47.128;8.746;2022-08-19T12:49:17;91709.13;;;19.44;64.12
46778;BME280;32536;47.128;8.746;2022-08-19T12:51:43;91711.41;;;19.46;63.87
46778;BME280;32536;47.128;8.746;2022-08-19T12:54:10;91706.72;;;19.46;63.92
46778;BME280;32536;47.128;8.746;2022-08-19T12:56:37;91703.53;;;19.48;64.10
46778;BME280;32536;47.128;8.746;2022-08-19T12:59:04;91721.66;;;19.51;64.14
46778;BME280;32536;47.128;8.746;2022-08-19T13:01:32;91702.63;;;19.51;63.92
46778;BME280;32536;47.128;8.746;2022-08-19T13:03:59;91704.88;;;19.52;64.01
46778;BME280;32536;47.128;8.746;2022-08-19T13:06:26;91708.53;;;19.49;63.93
46778;BME280;32536;47.128;8.746;2022-08-19T13:08:54;91712.63;;;19.45;63.93
46778;BME280;32536;47.128;8.746;2022-08-19T13:11:21;91704.31;;;19.39;64.13
46778;BME280;32536;47.128;8.746;2022-08-19T13:13:51;91705.69;;;19.34;64.21
46778;BME280;32536;47.128;8.746;2022-08-19T13:16:20;91707.50;;;19.38;64.18
46778;BME280;32536;47.128;8.746;2022-08-19T13:18:48;91710.81;;;19.42;64.18
46778;BME280;32536;47.128;8.746;2022-08-19T13:21:20;91714.41;;;19.48;64.12
46778;BME280;32536;47.128;8.746;2022-08-19T13:23:50;91710.00;;;19.50;64.08
46778;BME280;32536;47.128;8.746;2022-08-19T13:26:17;91708.81;;;19.51;64.12